Terminal Aerodrome Forecast
Issued by NWS Duluth, MN

Home | Current Version | Previous Version | Text Only | Print | Product List | Glossary On
Versions: 1 2 3 4 5 6 7 8 9 10 11 12 13 14 15 16 17 18 19 20 21 22 23 24 25 26 27
000
FTUS43 KDLH 311345 AAB
TAFDLH
TAF AMD
KDLH 311345Z 3114/0112 20013KT P6SM SCT009
     FM311700 21015G22KT P6SM FEW250
     FM010100 22011KT P6SM SCT040
     FM010800 23008KT 5SM BR SCT040 BKN120=

USA.gov is the U.S. government's official web portal to all federal, state and local government web resources and services.